createdAt,value
2019-04-06T00:02:55.572Z,38.20
2019-04-06T00:08:01.303Z,36.97
2019-04-06T00:13:06.971Z,36.63
2019-04-06T00:18:13.659Z,37.33
2019-04-06T00:23:20.101Z,37.17
2019-04-06T00:28:26.031Z,38.33
2019-04-06T00:33:33.096Z,35.60
2019-04-06T00:38:39.080Z,36.60
2019-04-06T00:43:45.033Z,35.97
2019-04-06T00:48:51.596Z,34.97
2019-04-06T00:53:58.103Z,34.80
2019-04-06T00:59:03.999Z,35.47
2019-04-06T01:04:10.299Z,34.83
2019-04-06T01:09:16.076Z,34.93
2019-04-06T01:14:22.237Z,33.53
2019-04-06T01:19:28.023Z,31.00
2019-04-06T01:24:33.837Z,28.73
2019-04-06T01:29:39.993Z,27.20
2019-04-06T01:34:46.577Z,25.60
2019-04-06T01:39:52.317Z,23.93
2019-04-06T01:44:58.235Z,25.00
2019-04-06T01:50:04.383Z,23.40
2019-04-06T01:55:10.095Z,23.40
2019-04-06T02:00:16.455Z,22.17
2019-04-06T02:05:23.372Z,22.63
2019-04-06T02:10:29.134Z,22.53
2019-04-06T02:15:34.935Z,23.23
2019-04-06T02:20:40.738Z,21.60
2019-04-06T02:25:46.630Z,21.20
2019-04-06T02:30:57.590Z,20.37
2019-04-06T02:36:21.190Z,21.50
2019-04-06T02:41:38.004Z,20.53
2019-04-06T02:46:44.323Z,19.70
2019-04-06T02:51:50.631Z,21.10
2019-04-06T02:56:56.338Z,19.63
2019-04-06T03:02:01.909Z,19.80
2019-04-06T03:07:07.838Z,18.07
2019-04-06T03:12:15.370Z,20.20
2019-04-06T03:17:21.118Z,19.30
2019-04-06T03:22:27.286Z,20.07
2019-04-06T03:27:34.245Z,20.37
2019-04-06T03:32:40.430Z,20.83
2019-04-06T03:37:46.826Z,20.03
2019-04-06T03:42:53.127Z,19.43
2019-04-06T03:47:59.687Z,20.30
2019-04-06T03:53:05.316Z,19.60
2019-04-06T03:58:11.224Z,18.17
2019-04-06T04:03:16.796Z,20.03
2019-04-06T04:08:22.433Z,19.60
2019-04-06T04:13:28.146Z,19.53
2019-04-06T04:18:33.799Z,19.33
2019-04-06T04:23:39.683Z,18.37
2019-04-06T04:28:47.169Z,18.67
2019-04-06T04:33:52.721Z,18.00
2019-04-06T04:38:58.364Z,18.93
2019-04-06T04:44:04.419Z,19.80
2019-04-06T04:49:10.015Z,19.20
2019-04-06T04:54:15.651Z,19.30
2019-04-06T04:59:21.745Z,19.13
2019-04-06T05:04:27.691Z,19.93
2019-04-06T05:09:33.474Z,18.37
2019-04-06T05:15:04.050Z,20.03
2019-04-06T05:20:10.254Z,20.20
2019-04-06T05:25:15.983Z,18.33
2019-04-06T05:30:21.555Z,19.37
2019-04-06T05:35:27.426Z,19.33
2019-04-06T05:40:35.045Z,18.73
2019-04-06T05:45:40.649Z,19.27
2019-04-06T05:50:46.287Z,20.87
2019-04-06T05:55:52.433Z,20.43
2019-04-06T06:00:58.077Z,20.70
2019-04-06T06:06:05.049Z,21.73
2019-04-06T06:11:11.091Z,22.00
2019-04-06T06:16:17.124Z,22.47
2019-04-06T06:21:22.729Z,22.03
2019-04-06T06:26:28.295Z,20.37
2019-04-06T06:31:34.161Z,21.47
2019-04-06T06:36:39.826Z,22.93
2019-04-06T06:41:45.744Z,22.40
2019-04-06T06:46:53.365Z,22.70
2019-04-06T06:51:59.240Z,24.20
2019-04-06T06:57:04.975Z,24.47
2019-04-06T07:02:11.454Z,23.80
2019-04-06T07:07:17.407Z,25.60
2019-04-06T07:12:23.066Z,24.10
2019-04-06T07:17:29.285Z,25.17
2019-04-06T07:22:35.420Z,24.37
2019-04-06T07:27:42.241Z,25.67
2019-04-06T07:32:48.098Z,24.23
2019-04-06T07:37:55.329Z,24.60
2019-04-06T07:43:01.277Z,25.67
2019-04-06T07:48:07.000Z,25.33
2019-04-06T07:53:13.227Z,24.27
2019-04-06T07:58:18.968Z,25.57
2019-04-06T08:03:24.570Z,24.70
2019-04-06T08:08:30.287Z,26.00
2019-04-06T08:13:36.418Z,20.67
2019-04-06T08:18:42.279Z,26.60
2019-04-06T08:23:48.990Z,25.47
2019-04-06T08:29:01.929Z,24.00
2019-04-06T08:34:02.911Z,25.27
2019-04-06T08:39:10.407Z,25.32
2019-04-06T08:44:16.778Z,23.80
2019-04-06T08:49:23.424Z,23.70
2019-04-06T08:54:29.602Z,25.15
2019-04-06T08:59:35.811Z,25.25
2019-04-06T09:04:42.581Z,24.77
2019-04-06T09:09:48.324Z,21.55
2019-04-06T09:14:54.447Z,25.97
2019-04-06T09:20:00.241Z,21.02
2019-04-06T09:25:07.851Z,24.65
2019-04-06T09:30:16.006Z,23.00
2019-04-06T09:35:21.684Z,22.40
2019-04-06T09:40:28.398Z,25.40
2019-04-06T09:45:55.086Z,24.47
2019-04-06T09:51:19.271Z,19.23
2019-04-06T09:56:32.606Z,24.40
2019-04-06T10:01:57.584Z,21.10
2019-04-06T10:07:18.057Z,21.95
2019-04-06T10:12:25.640Z,20.95
2019-04-06T10:17:42.610Z,18.87
2019-04-06T10:22:59.639Z,19.75
2019-04-06T10:28:13.105Z,21.65
2019-04-06T10:33:23.456Z,20.40
2019-04-06T10:38:36.447Z,22.10
2019-04-06T10:43:43.921Z,19.37
2019-04-06T10:49:08.002Z,19.00
2019-04-06T10:54:26.584Z,18.32
2019-04-06T10:59:39.878Z,17.23
2019-04-06T11:04:53.353Z,18.30
2019-04-06T11:10:17.715Z,17.67
2019-04-06T11:15:37.710Z,16.48
2019-04-06T11:20:47.963Z,18.07
2019-04-06T11:25:56.055Z,16.32
2019-04-06T11:31:13.244Z,16.02
2019-04-06T11:36:29.072Z,16.55
2019-04-06T11:41:54.717Z,16.48
2019-04-06T11:47:21.953Z,15.88
2019-04-06T11:52:29.467Z,17.90
2019-04-06T11:57:41.123Z,17.25
2019-04-06T12:02:48.960Z,17.50
2019-04-06T12:08:09.674Z,18.48
2019-04-06T12:13:18.249Z,17.17
2019-04-06T12:18:25.999Z,17.92
2019-04-06T12:23:34.877Z,18.87
2019-04-06T12:28:51.931Z,18.35
2019-04-06T12:34:14.043Z,18.07
2019-04-06T12:39:34.021Z,16.57
2019-04-06T12:44:45.731Z,16.77
2019-04-06T12:50:12.369Z,18.23
2019-04-06T12:55:20.657Z,18.15
2019-04-06T13:00:28.714Z,19.37
2019-04-06T13:05:36.624Z,19.30
2019-04-06T13:10:48.673Z,16.57
2019-04-06T13:15:57.170Z,18.62
2019-04-06T13:21:21.131Z,19.00
2019-04-06T13:26:32.370Z,17.60
2019-04-06T13:31:51.010Z,16.57
2019-04-06T13:37:03.707Z,17.42
2019-04-06T13:42:16.336Z,16.02
2019-04-06T13:47:24.784Z,15.20
2019-04-06T13:52:49.570Z,15.50
2019-04-06T13:58:01.703Z,13.38
2019-04-06T14:03:12.019Z,15.15
2019-04-06T14:08:32.291Z,14.18
2019-04-06T14:13:49.407Z,13.48
2019-04-06T14:19:12.676Z,13.62
2019-04-06T14:24:31.624Z,12.45
2019-04-06T14:29:42.098Z,12.28
2019-04-06T14:35:05.080Z,11.40
2019-04-06T14:40:30.377Z,11.08
2019-04-06T14:45:43.360Z,11.90
2019-04-06T14:51:10.024Z,11.65
2019-04-06T14:56:23.413Z,13.18
2019-04-06T15:01:57.138Z,12.33
2019-04-06T15:07:11.540Z,12.18
2019-04-06T15:12:20.184Z,12.28
2019-04-06T15:17:30.190Z,13.58
2019-04-06T15:22:49.987Z,13.65
2019-04-06T15:28:09.627Z,14.53
2019-04-06T15:33:33.739Z,13.53
2019-04-06T15:38:56.461Z,12.88
2019-04-06T15:44:12.337Z,11.43
2019-04-06T15:49:39.638Z,14.15
2019-04-06T15:54:52.441Z,12.68
2019-04-06T16:00:19.336Z,14.00
2019-04-06T16:05:41.253Z,11.95
2019-04-06T16:10:50.283Z,12.50
2019-04-06T16:16:04.109Z,12.75
2019-04-06T16:21:29.350Z,12.00
2019-04-06T16:26:47.486Z,14.40
2019-04-06T16:32:10.132Z,15.72
2019-04-06T16:37:17.909Z,15.98
2019-04-06T16:42:34.130Z,16.23
2019-04-06T16:47:49.019Z,16.02
2019-04-06T16:52:57.899Z,16.48
2019-04-06T16:58:23.164Z,17.32
2019-04-06T17:03:50.032Z,16.77
2019-04-06T17:09:01.863Z,17.67
2019-04-06T17:14:16.275Z,16.15
2019-04-06T17:19:34.143Z,16.87
2019-04-06T17:24:42.505Z,16.60
2019-04-06T17:29:54.537Z,16.17
2019-04-06T17:35:07.598Z,17.15
2019-04-06T17:40:24.623Z,16.85
2019-04-06T17:45:39.000Z,17.12
2019-04-06T17:50:49.805Z,15.30
2019-04-06T17:56:20.105Z,16.93
2019-04-06T18:01:34.608Z,17.45
2019-04-06T18:06:52.238Z,16.32
2019-04-06T18:12:06.620Z,16.10
2019-04-06T18:17:12.946Z,16.80
2019-04-06T18:22:20.249Z,15.20
2019-04-06T18:27:27.463Z,14.83
2019-04-06T18:32:37.482Z,15.28
2019-04-06T18:37:48.403Z,14.65
2019-04-06T18:42:56.228Z,14.25
2019-04-06T18:48:03.408Z,14.28
2019-04-06T18:53:10.629Z,14.20
2019-04-06T18:58:17.166Z,14.68
2019-04-06T19:03:23.307Z,14.18
2019-04-06T19:08:30.870Z,14.28
2019-04-06T19:13:39.105Z,13.68
2019-04-06T19:18:45.667Z,13.98
2019-04-06T19:23:53.878Z,13.83
2019-04-06T19:29:03.770Z,14.93
2019-04-06T19:34:09.509Z,13.93
2019-04-06T19:39:17.040Z,14.30
2019-04-06T19:44:24.908Z,13.88
2019-04-06T19:49:33.968Z,13.45
2019-04-06T19:54:41.593Z,14.23
2019-04-06T19:59:50.353Z,13.83
2019-04-06T20:04:57.027Z,14.20
2019-04-06T20:10:07.180Z,15.08
2019-04-06T20:15:15.456Z,14.07
2019-04-06T20:20:22.555Z,13.03
2019-04-06T20:25:29.585Z,12.98
2019-04-06T20:30:38.615Z,14.33
2019-04-06T20:35:45.738Z,14.07
2019-04-06T20:40:52.765Z,14.77
2019-04-06T20:45:59.644Z,13.27
2019-04-06T20:51:06.277Z,14.20
2019-04-06T20:56:14.566Z,14.20
2019-04-06T21:01:21.189Z,13.83
2019-04-06T21:06:29.133Z,14.13
2019-04-06T21:11:35.790Z,14.10
2019-04-06T21:16:44.553Z,14.43
2019-04-06T21:21:51.972Z,14.83
2019-04-06T21:26:58.611Z,14.67
2019-04-06T21:32:06.348Z,15.50
2019-04-06T21:37:13.405Z,13.37
2019-04-06T21:42:20.028Z,15.17
2019-04-06T21:47:26.235Z,14.80
2019-04-06T21:52:33.245Z,15.20
2019-04-06T21:57:41.902Z,15.47
2019-04-06T22:02:50.157Z,15.67
2019-04-06T22:07:57.283Z,14.27
2019-04-06T22:13:04.190Z,14.40
2019-04-06T22:18:11.538Z,14.93
2019-04-06T22:23:17.577Z,14.13
2019-04-06T22:28:24.463Z,15.13
2019-04-06T22:33:30.690Z,14.30
2019-04-06T22:38:36.583Z,14.47
2019-04-06T22:43:43.754Z,15.03
2019-04-06T22:48:49.966Z,13.43
2019-04-06T22:53:56.117Z,14.03
2019-04-06T22:59:03.223Z,14.90
2019-04-06T23:04:13.413Z,14.13
2019-04-06T23:09:20.123Z,14.23
2019-04-06T23:14:27.195Z,14.40
2019-04-06T23:19:32.962Z,15.47
2019-04-06T23:24:38.663Z,13.83
2019-04-06T23:29:44.601Z,13.57
2019-04-06T23:34:59.430Z,14.27
2019-04-06T23:39:58.433Z,14.57
2019-04-06T23:45:07.011Z,13.13
2019-04-06T23:50:13.578Z,13.83
2019-04-06T23:55:21.275Z,14.90
